Jag Akshay — AWRA — position and weather

sailwx.info

Track history (hours):
 
Tides and Currents Weather Stations Pressure Air Temp Water Temp Dewpoint Dewpoint Depression Visibility Wind Speed Wind Dir Waves Ship Positions

Jag Akshay

Last reported at 2018-Feb-17 13:57 UTC. Time now 2018-Feb-19 14:17 UTC.
Position N 41°40' E 141°49'.

Length 229 m; draft 7.4 m.

Type: Cargo ship. MMSI: 419001168.

Date/timePositionNaut miles runAvg speedWind from/ knotsBaromVisibWave heightAir tempDewpointWater temp
2018-Feb-17 13:57N 41°40' E 141°49'510.8
2018-Feb-17 13:30N 41°39' E 141°42'611.8
2018-Feb-17 13:00N 41°39' E 141°35'612.8
2018-Feb-17 12:30N 41°38' E 141°26'612.7
2018-Feb-17 12:00N 41°38' E 141°18'712.9
2018-Feb-17 11:30N 41°37' E 141°09'713.8
2018-Feb-17 11:00N 41°37' E 140°60'714.8
2018-Feb-17 10:30N 41°36' E 140°50'713.7
2018-Feb-17 10:01N 41°34' E 140°41'612.7
2018-Feb-17 09:30N 41°31' E 140°34'613.1
2018-Feb-17 09:00N 41°27' E 140°27'611.7
2018-Feb-17 08:30N 41°24' E 140°21'612.1
2018-Feb-17 08:01N 41°20' E 140°14'  
2018-Feb-13 20:00N 31°06' E 122°44'814.1
2018-Feb-13 19:25N 31°05' E 122°34'510.9
2018-Feb-13 19:00N 31°05' E 122°29'5 9.8
2018-Feb-13 18:30N 31°05' E 122°23'714.0
2018-Feb-13 18:00N 31°08' E 122°16'714.1
2018-Feb-13 17:30N 31°12' E 122°09'713.8
2018-Feb-13 17:00N 31°14' E 122°02'712.8
2018-Feb-13 16:29N 31°16' E 121°54'610.2
2018-Feb-13 15:55N 31°18' E 121°48'4 9.3
2018-Feb-13 15:27N 31°19' E 121°43'4 7.4
2018-Feb-13 14:51N 31°22' E 121°38'3 7.6
2018-Feb-13 14:30N 31°23' E 121°36'4 8.5
2018-Feb-13 14:00N 31°25' E 121°31'3 6.1
2018-Feb-13 13:30N 31°27' E 121°28'4 7.3
2018-Feb-13 13:01N 31°30' E 121°26'510.9
2018-Feb-13 12:31N 31°33' E 121°20'713.7
2018-Feb-13 12:00N 31°38' E 121°15'612.5
2018-Feb-13 11:30N 31°42' E 121°09'713.5
2018-Feb-13 11:00N 31°46' E 121°03'2911.2
2018-Feb-13 08:25N 32°01' E 120°34'612.8
2018-Feb-13 07:59N 32°02' E 120°27'  
Track history (hours):
 
Tides and Currents Weather Stations Pressure Air Temp Water Temp Dewpoint Dewpoint Depression Visibility Wind Speed Wind Dir Waves Ship Positions

Jag Akshay

Last reported at 2018-Feb-17 13:57 UTC. Time now 2018-Feb-19 14:17 UTC.
Position N 41°40' E 141°49'.

Length 229 m; draft 7.4 m.

Type: Cargo ship. MMSI: 419001168.

Date/timePositionNaut miles runAvg speedWind from/ knotsBaromVisibWave heightAir tempDewpointWater temp
2018-Feb-17 13:57N 41°40' E 141°49'510.8
2018-Feb-17 13:30N 41°39' E 141°42'611.8
2018-Feb-17 13:00N 41°39' E 141°35'612.8
2018-Feb-17 12:30N 41°38' E 141°26'612.7
2018-Feb-17 12:00N 41°38' E 141°18'712.9
2018-Feb-17 11:30N 41°37' E 141°09'713.8
2018-Feb-17 11:00N 41°37' E 140°60'714.8
2018-Feb-17 10:30N 41°36' E 140°50'713.7
2018-Feb-17 10:01N 41°34' E 140°41'612.7
2018-Feb-17 09:30N 41°31' E 140°34'613.1
2018-Feb-17 09:00N 41°27' E 140°27'611.7
2018-Feb-17 08:30N 41°24' E 140°21'612.1
2018-Feb-17 08:01N 41°20' E 140°14'  
2018-Feb-13 20:00N 31°06' E 122°44'814.1
2018-Feb-13 19:25N 31°05' E 122°34'510.9
2018-Feb-13 19:00N 31°05' E 122°29'5 9.8
2018-Feb-13 18:30N 31°05' E 122°23'714.0
2018-Feb-13 18:00N 31°08' E 122°16'714.1
2018-Feb-13 17:30N 31°12' E 122°09'713.8
2018-Feb-13 17:00N 31°14' E 122°02'712.8
2018-Feb-13 16:29N 31°16' E 121°54'610.2
2018-Feb-13 15:55N 31°18' E 121°48'4 9.3
2018-Feb-13 15:27N 31°19' E 121°43'4 7.4
2018-Feb-13 14:51N 31°22' E 121°38'3 7.6
2018-Feb-13 14:30N 31°23' E 121°36'4 8.5
2018-Feb-13 14:00N 31°25' E 121°31'3 6.1
2018-Feb-13 13:30N 31°27' E 121°28'4 7.3
2018-Feb-13 13:01N 31°30' E 121°26'510.9
2018-Feb-13 12:31N 31°33' E 121°20'713.7
2018-Feb-13 12:00N 31°38' E 121°15'612.5
2018-Feb-13 11:30N 31°42' E 121°09'713.5
2018-Feb-13 11:00N 31°46' E 121°03'2911.2
2018-Feb-13 08:25N 32°01' E 120°34'612.8
2018-Feb-13 07:59N 32°02' E 120°27'  

Dump ship's entire track history